DAUL/LOO METAR and TAF weather

Enter ICAO airport designator
Station Type Date Time Source
DAUL METAR 2020/09/22 22:00 UTC NOAA

DAUL 222200Z 12006KT 9999 FEW033 24/15 Q1018


Station Type Date Time Source
DAUL Decoded METAR 2020/09/22 22:00 UTC NOAA

Laghouat, Algeria (DAUL) 33-46N 002-56E 765M
Sep 22, 2020 - 06:00 PM EDT / 2020.09.22 2200 UTC
Wind: from the ESE (120 degrees) at 7 MPH (6 KT):0
Visibility: greater than 7 mile(s):0
Sky conditions: mostly clear
Temperature: 75 F (24 C)
Dew Point: 59 F (15 C)
Relative Humidity: 57%
Pressure (altimeter): 30.06 in. Hg (1018 hPa)
ob: DAUL 222200Z 12006KT 9999 FEW033 24/15 Q1018
cycle: 22

Station Type Date Time Source
DAUL TAF 2017/11/09 18:03 UTC NOAA

TAF DAUL 091700Z 0918/1009 02012KT 9999 SCT030 SCT100 PROB40
TEMPO 0918/0924 35020G30KT 4000 -TSRA FEW030CB

Example: see airport list